< < Back
Terminal Aerodrome Forecast


Current Version              Previous Versions:   1  2  3  4  5  6  7  8  9  

Terminal Aerodrome Forecast

233
FTUS42 KJAX 192300 RRA
TAFJAX
TAF
KJAX 192352Z 2000/2024 35006KT P6SM VCTS SCT015CB BKN030
      TEMPO 2000/2002 3SM SHRA BKN015
     FM200200 04004KT P6SM VCSH SCT020 BKN100
     FM201500 05011KT P6SM VCSH BKN020 OVC100=

Latest METAR

530
SAUS80 KWBC 192300 CCA
MTRJAX
METAR KJAX 192256Z 33011G16KT 8SM -TSRA FEW015 BKN030CB OVC090 23/22
A2999 RMK AO2 RAB53 SLP156 OCNL LTGICCG OHD TS OHD MOV SW
P0000 T02280217


USA.gov is the U.S. government's official web portal to all federal, state and local government web resources and services.